Airfield :
LOGIN :

Register | Disclaimer

   EN    FR    IT 

 










Legend :    VFR   Marginal VFR   IFR   Intensive IFR   Very Intensive IFR
Visi :
Ceiling :
>= 8 km
>= 3000ft
5 to 8 km
1000 to 3000 ft
1500m to 5 km
500 to 1000 ft
800 to 1500m
200 to 500 ft
< 800m
< 200 ft
Symbols :   Thunderstorms  Fog  Heavy snow  Heavy precipitations  Wind > 20 kt
SIGMETs :     Misc.  Thunderstorms  Icing  Turbulence  Mountain Waves  Volcanic Ashes






- Airport Elevation : 1411 ft
- IATA code : ZHI


LSZG - Grenchen

CURRENT METAR :
  • 160820Z 14001KT 1500 BR SCT003 BKN025 M07/M07 Q1027 NOSIG

EXPIRED METARs :
  • 160750Z VRB01KT 0800 FZFG VV003 M08/M08 Q1027 NOSIG
  • 160720Z 00000KT 0050 FZFG VV000 M10/M10 Q1027
  • 160650Z VRB01KT 0150 FZFG VV001 M10/M10 Q1027
  • 160620Z AUTO 00000KT 0050 FZFG VV000 M10/M10 Q1027
  • 160550Z AUTO VRB01KT 0050 FZFG VV000 M10/M10 Q1027

TAF AMD TAF LSZG
Valid from the 16 at 06:00 until the 16 at 15:00 UTC


160622Z 1606/1615 VRB03KT 0100 FZFG VV001
BECMG 1609/1612 3000 BR BKN010
BECMG 1612/1615 6000 SCT015
ATIS : +41 32 396 96 33



MET'MAP, your aeronautical weather chart ! - Copyright ORBIFLY December 2007 - Disclaimer

ORBIFLY MET'MAP TEAM :

Programming & Development : Alexandra Zaïnal
Concept & original design : Baudouin d'Aumeries
Assistance for programming : Marc-Olivier Méhu
Technical & hardware support : Manuel Goepfert

Contact : metmap@orbifly.com




SOURCES & CREDITS :

   NOAA